createdAt,value
2022-12-11T00:02:06.474Z,100.00
2022-12-11T00:04:36.165Z,100.00
2022-12-11T00:07:05.052Z,100.00
2022-12-11T00:09:33.647Z,100.00
2022-12-11T00:12:02.824Z,100.00
2022-12-11T00:14:31.118Z,100.00
2022-12-11T00:16:59.402Z,100.00
2022-12-11T00:19:27.872Z,100.00
2022-12-11T00:21:56.929Z,100.00
2022-12-11T00:24:25.404Z,100.00
2022-12-11T00:26:53.497Z,100.00
2022-12-11T00:29:21.789Z,100.00
2022-12-11T00:31:49.895Z,100.00
2022-12-11T00:34:18.345Z,100.00
2022-12-11T00:36:46.906Z,100.00
2022-12-11T00:39:15.240Z,100.00
2022-12-11T00:41:43.374Z,100.00
2022-12-11T00:44:12.342Z,100.00
2022-12-11T00:46:41.963Z,100.00
2022-12-11T00:49:11.384Z,100.00
2022-12-11T00:51:39.885Z,100.00
2022-12-11T00:54:08.699Z,100.00
2022-12-11T00:56:37.365Z,100.00
2022-12-11T00:59:07.130Z,100.00
2022-12-11T01:01:35.920Z,100.00
2022-12-11T01:04:04.792Z,100.00
2022-12-11T01:06:34.161Z,100.00
2022-12-11T01:09:21.568Z,100.00
2022-12-11T01:11:50.152Z,100.00
2022-12-11T01:14:18.254Z,100.00
2022-12-11T01:16:46.492Z,100.00
2022-12-11T01:19:15.584Z,100.00
2022-12-11T01:21:44.284Z,100.00
2022-12-11T01:24:13.215Z,100.00
2022-12-11T01:26:43.070Z,100.00
2022-12-11T01:29:12.752Z,100.00
2022-12-11T01:31:41.491Z,100.00
2022-12-11T01:34:13.416Z,100.00
2022-12-11T01:36:41.969Z,100.00
2022-12-11T01:39:10.273Z,100.00
2022-12-11T01:41:38.920Z,100.00
2022-12-11T01:44:07.577Z,100.00
2022-12-11T01:46:37.204Z,100.00
2022-12-11T01:49:08.101Z,100.00
2022-12-11T01:51:39.801Z,100.00
2022-12-11T01:54:11.133Z,100.00
2022-12-11T01:56:41.050Z,100.00
2022-12-11T01:59:09.954Z,100.00
2022-12-11T02:01:53.265Z,100.00
2022-12-11T02:04:21.736Z,100.00
2022-12-11T02:06:51.251Z,100.00
2022-12-11T02:09:22.033Z,100.00
2022-12-11T02:12:09.677Z,100.00
2022-12-11T02:14:43.945Z,100.00
2022-12-11T02:17:38.899Z,100.00
2022-12-11T02:20:11.966Z,100.00
2022-12-11T02:22:42.795Z,100.00
2022-12-11T02:25:26.708Z,100.00
2022-12-11T02:28:06.906Z,100.00
2022-12-11T02:30:37.467Z,100.00
2022-12-11T02:33:07.337Z,100.00
2022-12-11T02:35:38.394Z,100.00
2022-12-11T02:38:10.575Z,100.00
2022-12-11T02:40:40.396Z,100.00
2022-12-11T02:43:10.784Z,100.00
2022-12-11T02:45:40.334Z,100.00
2022-12-11T02:48:11.124Z,100.00
2022-12-11T02:50:42.991Z,100.00
2022-12-11T02:53:13.223Z,100.00
2022-12-11T02:55:44.296Z,100.00
2022-12-11T02:58:14.816Z,100.00
2022-12-11T03:00:44.411Z,100.00
2022-12-11T03:03:13.075Z,100.00
2022-12-11T03:05:42.293Z,100.00
2022-12-11T03:08:10.376Z,100.00
2022-12-11T03:10:38.360Z,100.00
2022-12-11T03:13:06.378Z,100.00
2022-12-11T03:15:47.365Z,100.00
2022-12-11T03:18:15.496Z,100.00
2022-12-11T03:20:45.630Z,100.00
2022-12-11T03:23:14.143Z,100.00
2022-12-11T03:25:47.099Z,100.00
2022-12-11T03:28:26.593Z,100.00
2022-12-11T03:30:56.880Z,100.00
2022-12-11T03:33:33.363Z,100.00
2022-12-11T03:36:14.430Z,100.00
2022-12-11T03:39:02.607Z,100.00
2022-12-11T03:41:31.865Z,100.00
2022-12-11T03:44:00.367Z,100.00
2022-12-11T03:46:32.166Z,100.00
2022-12-11T03:49:08.186Z,100.00
2022-12-11T03:51:36.384Z,100.00
2022-12-11T03:54:04.589Z,100.00
2022-12-11T03:56:35.158Z,100.00
2022-12-11T03:59:03.204Z,100.00
2022-12-11T04:01:31.476Z,100.00
2022-12-11T04:03:59.498Z,100.00
2022-12-11T04:06:27.682Z,100.00
2022-12-11T04:08:55.758Z,100.00
2022-12-11T04:11:36.636Z,100.00
2022-12-11T04:14:24.507Z,100.00
2022-12-11T04:16:52.678Z,100.00
2022-12-11T04:19:40.201Z,100.00
2022-12-11T04:22:28.260Z,100.00
2022-12-11T04:24:56.713Z,100.00
2022-12-11T04:27:43.935Z,100.00
2022-12-11T04:30:19.900Z,100.00
2022-12-11T04:32:48.419Z,100.00
2022-12-11T04:35:16.664Z,100.00
2022-12-11T04:37:44.679Z,100.00
2022-12-11T04:40:14.563Z,100.00
2022-12-11T04:42:42.543Z,100.00
2022-12-11T04:45:12.499Z,100.00
2022-12-11T04:47:41.615Z,100.00
2022-12-11T04:50:11.170Z,100.00
2022-12-11T04:52:42.330Z,100.00
2022-12-11T04:55:11.247Z,100.00
2022-12-11T04:57:39.889Z,100.00
2022-12-11T05:00:09.753Z,100.00
2022-12-11T05:02:38.851Z,100.00
2022-12-11T05:05:10.227Z,100.00
2022-12-11T05:07:38.884Z,100.00
2022-12-11T05:10:07.258Z,100.00
2022-12-11T05:12:35.225Z,100.00
2022-12-11T05:15:03.297Z,100.00
2022-12-11T05:17:31.222Z,100.00
2022-12-11T05:19:59.224Z,100.00
2022-12-11T05:22:27.973Z,100.00
2022-12-11T05:24:55.938Z,100.00
2022-12-11T05:27:23.992Z,100.00
2022-12-11T05:29:59.088Z,100.00
2022-12-11T05:32:27.681Z,100.00
2022-12-11T05:34:55.794Z,100.00
2022-12-11T05:37:23.955Z,100.00
2022-12-11T05:39:52.028Z,100.00
2022-12-11T05:42:22.887Z,100.00
2022-12-11T05:44:55.624Z,100.00
2022-12-11T05:47:24.117Z,100.00
2022-12-11T05:49:52.642Z,100.00
2022-12-11T05:52:22.511Z,100.00
2022-12-11T05:54:50.666Z,100.00
2022-12-11T05:57:18.704Z,100.00
2022-12-11T05:59:46.602Z,100.00
2022-12-11T06:02:14.735Z,100.00
2022-12-11T06:04:42.774Z,100.00
2022-12-11T06:07:11.288Z,100.00
2022-12-11T06:09:39.796Z,100.00
2022-12-11T06:12:07.823Z,100.00
2022-12-11T06:14:35.750Z,100.00
2022-12-11T06:17:03.982Z,100.00
2022-12-11T06:19:36.595Z,100.00
2022-12-11T06:22:05.457Z,100.00
2022-12-11T06:24:34.188Z,100.00
2022-12-11T06:27:02.450Z,100.00
2022-12-11T06:29:30.890Z,100.00
2022-12-11T06:31:58.975Z,100.00
2022-12-11T06:34:28.189Z,100.00
2022-12-11T06:36:56.590Z,100.00
2022-12-11T06:39:25.030Z,100.00
2022-12-11T06:41:52.986Z,100.00
2022-12-11T06:44:21.144Z,100.00
2022-12-11T06:46:49.103Z,100.00
2022-12-11T06:49:17.063Z,100.00
2022-12-11T06:51:45.331Z,100.00
2022-12-11T06:54:13.391Z,100.00
2022-12-11T06:56:41.517Z,100.00
2022-12-11T06:59:12.908Z,100.00
2022-12-11T07:01:41.781Z,100.00
2022-12-11T07:04:09.754Z,100.00
2022-12-11T07:06:37.825Z,100.00
2022-12-11T07:09:06.273Z,100.00
2022-12-11T07:11:34.300Z,100.00
2022-12-11T07:14:02.615Z,100.00
2022-12-11T07:16:30.624Z,100.00
2022-12-11T07:18:58.668Z,100.00
2022-12-11T07:21:26.637Z,100.00
2022-12-11T07:23:54.879Z,100.00
2022-12-11T07:26:22.954Z,100.00
2022-12-11T07:28:50.966Z,100.00
2022-12-11T07:31:20.417Z,100.00
2022-12-11T07:33:48.631Z,100.00
2022-12-11T07:36:17.204Z,100.00
2022-12-11T07:38:46.192Z,100.00
2022-12-11T07:41:15.924Z,100.00
2022-12-11T07:43:44.266Z,100.00
2022-12-11T07:46:13.706Z,100.00
2022-12-11T07:48:42.679Z,100.00
2022-12-11T07:51:16.956Z,100.00
2022-12-11T07:53:46.217Z,100.00
2022-12-11T07:56:15.893Z,100.00
2022-12-11T07:58:44.276Z,100.00
2022-12-11T08:01:17.006Z,100.00
2022-12-11T08:03:45.007Z,100.00
2022-12-11T08:06:13.170Z,100.00
2022-12-11T08:08:42.261Z,100.00
2022-12-11T08:11:14.340Z,100.00
2022-12-11T08:13:43.197Z,100.00
2022-12-11T08:16:13.354Z,100.00
2022-12-11T08:18:41.958Z,100.00
2022-12-11T08:21:29.571Z,100.00
2022-12-11T08:23:57.605Z,100.00
2022-12-11T08:26:30.120Z,100.00
2022-12-11T08:28:58.735Z,100.00
2022-12-11T08:31:27.193Z,100.00
2022-12-11T08:33:56.655Z,100.00
2022-12-11T08:36:25.664Z,100.00
2022-12-11T08:38:54.946Z,100.00
2022-12-11T08:41:24.747Z,100.00
2022-12-11T08:43:55.339Z,100.00
2022-12-11T08:46:24.596Z,100.00
2022-12-11T08:48:53.609Z,100.00
2022-12-11T08:51:23.549Z,100.00
2022-12-11T08:53:54.287Z,100.00
2022-12-11T08:56:23.963Z,100.00
2022-12-11T08:58:52.862Z,100.00
2022-12-11T09:01:25.890Z,100.00
2022-12-11T09:03:55.340Z,100.00
2022-12-11T09:06:24.923Z,100.00
2022-12-11T09:08:53.682Z,100.00
2022-12-11T09:11:23.685Z,100.00
2022-12-11T09:13:52.382Z,100.00
2022-12-11T09:16:22.219Z,100.00
2022-12-11T09:18:51.637Z,100.00
2022-12-11T09:21:20.919Z,100.00
2022-12-11T09:23:49.130Z,100.00
2022-12-11T09:26:18.003Z,100.00
2022-12-11T09:28:47.133Z,100.00
2022-12-11T09:31:20.235Z,100.00
2022-12-11T09:33:49.270Z,100.00
2022-12-11T09:36:17.674Z,100.00
2022-12-11T09:38:46.768Z,100.00
2022-12-11T09:41:21.267Z,100.00
2022-12-11T09:43:49.416Z,100.00
2022-12-11T09:46:17.938Z,100.00
2022-12-11T09:48:48.424Z,100.00
2022-12-11T09:51:19.436Z,100.00
2022-12-11T09:53:49.681Z,100.00
2022-12-11T09:56:21.596Z,100.00
2022-12-11T09:59:09.043Z,100.00
2022-12-11T10:01:49.036Z,100.00
2022-12-11T10:04:17.964Z,100.00
2022-12-11T10:06:47.431Z,100.00
2022-12-11T10:09:34.466Z,100.00
2022-12-11T10:12:02.710Z,100.00
2022-12-11T10:14:32.237Z,100.00
2022-12-11T10:17:20.852Z,100.00
2022-12-11T10:19:49.772Z,100.00
2022-12-11T10:22:22.974Z,100.00
2022-12-11T10:25:23.633Z,100.00
2022-12-11T10:27:51.230Z,100.00
2022-12-11T10:30:28.411Z,100.00
2022-12-11T10:32:59.716Z,100.00
2022-12-11T10:35:40.731Z,100.00
2022-12-11T10:38:12.135Z,100.00
2022-12-11T10:40:42.740Z,100.00
2022-12-11T10:43:11.123Z,100.00
2022-12-11T10:45:39.289Z,100.00
2022-12-11T10:48:11.517Z,100.00
2022-12-11T10:50:40.534Z,100.00
2022-12-11T10:53:20.206Z,100.00
2022-12-11T10:55:49.612Z,100.00
2022-12-11T10:58:23.169Z,100.00
2022-12-11T11:01:00.885Z,100.00
2022-12-11T11:03:30.007Z,100.00
2022-12-11T11:06:17.900Z,100.00
2022-12-11T11:08:54.420Z,100.00
2022-12-11T11:11:25.332Z,100.00
2022-12-11T11:14:05.507Z,100.00
2022-12-11T11:16:37.221Z,100.00
2022-12-11T11:19:05.752Z,100.00
2022-12-11T11:21:35.590Z,100.00
2022-12-11T11:24:04.502Z,100.00
2022-12-11T11:27:11.286Z,100.00
2022-12-11T11:29:31.060Z,100.00
2022-12-11T11:32:04.048Z,100.00
2022-12-11T11:34:32.568Z,100.00
2022-12-11T11:37:05.742Z,100.00
2022-12-11T11:39:40.632Z,99.98
2022-12-11T11:42:38.108Z,99.97
2022-12-11T11:45:14.092Z,99.99
2022-12-11T11:48:11.475Z,99.90
2022-12-11T11:50:41.606Z,99.91
2022-12-11T11:53:23.541Z,99.80
2022-12-11T11:55:52.531Z,99.72
2022-12-11T11:58:23.533Z,99.81
2022-12-11T12:00:54.021Z,99.92
2022-12-11T12:03:24.202Z,99.65
2022-12-11T12:06:15.429Z,99.89
2022-12-11T12:08:49.488Z,99.97
2022-12-11T12:11:23.998Z,99.90
2022-12-11T12:13:54.773Z,99.80
2022-12-11T12:16:53.620Z,99.83
2022-12-11T12:19:25.106Z,99.79
2022-12-11T12:21:53.709Z,100.00
2022-12-11T12:24:42.679Z,99.91
2022-12-11T12:27:50.121Z,99.95
2022-12-11T12:30:08.776Z,99.98
2022-12-11T12:32:53.723Z,99.93
2022-12-11T12:35:22.393Z,99.98
2022-12-11T12:37:59.733Z,99.98
2022-12-11T12:40:34.132Z,99.99
2022-12-11T12:43:17.345Z,100.00
2022-12-11T12:45:45.562Z,99.93
2022-12-11T12:48:14.097Z,99.97
2022-12-11T12:50:47.976Z,99.91
2022-12-11T12:53:18.801Z,99.94
2022-12-11T12:55:48.654Z,99.95
2022-12-11T12:58:43.435Z,99.93
2022-12-11T13:01:15.360Z,99.95
2022-12-11T13:03:57.932Z,99.87
2022-12-11T13:06:35.231Z,99.78
2022-12-11T13:09:24.119Z,99.91
2022-12-11T13:11:55.315Z,99.87
2022-12-11T13:14:32.784Z,99.70
2022-12-11T13:17:19.803Z,99.85
2022-12-11T13:19:53.485Z,99.67
2022-12-11T13:22:23.563Z,99.56
2022-12-11T13:24:51.772Z,99.61
2022-12-11T13:27:24.661Z,99.65
2022-12-11T13:30:04.450Z,99.48
2022-12-11T13:32:33.522Z,99.68
2022-12-11T13:35:06.125Z,99.28
2022-12-11T13:37:39.029Z,99.46
2022-12-11T13:40:19.824Z,99.00
2022-12-11T13:42:55.282Z,99.19
2022-12-11T13:45:25.971Z,99.00
2022-12-11T13:47:56.521Z,99.22
2022-12-11T13:50:26.560Z,99.07
2022-12-11T13:52:59.641Z,99.19
2022-12-11T13:55:32.253Z,99.32
2022-12-11T13:58:00.719Z,99.20
2022-12-11T14:00:30.786Z,98.81
2022-12-11T14:03:01.579Z,99.15
2022-12-11T14:05:30.365Z,98.94
2022-12-11T14:08:02.916Z,99.29
2022-12-11T14:10:32.774Z,99.31
2022-12-11T14:13:03.025Z,99.27
2022-12-11T14:15:33.071Z,99.25
2022-12-11T14:18:01.920Z,99.08
2022-12-11T14:20:32.466Z,99.17
2022-12-11T14:23:09.154Z,99.03
2022-12-11T14:25:37.491Z,99.31
2022-12-11T14:28:14.602Z,99.41
2022-12-11T14:30:47.578Z,99.38
2022-12-11T14:33:17.370Z,99.28
2022-12-11T14:35:47.492Z,99.57
2022-12-11T14:38:23.797Z,99.71
2022-12-11T14:40:55.277Z,99.54
2022-12-11T14:43:28.019Z,99.84
2022-12-11T14:45:59.637Z,99.86
2022-12-11T14:48:34.344Z,99.90
2022-12-11T14:51:04.747Z,99.79
2022-12-11T14:53:37.668Z,99.84
2022-12-11T14:56:08.251Z,99.88
2022-12-11T14:58:44.743Z,99.95
2022-12-11T15:01:40.780Z,99.94
2022-12-11T15:04:15.935Z,99.96
2022-12-11T15:06:45.569Z,100.00
2022-12-11T15:09:17.817Z,100.00
2022-12-11T15:11:47.313Z,100.00
2022-12-11T15:14:18.390Z,100.00
2022-12-11T15:16:48.324Z,100.00
2022-12-11T15:19:22.884Z,100.00
2022-12-11T15:21:52.474Z,100.00
2022-12-11T15:24:26.328Z,100.00
2022-12-11T15:26:57.783Z,100.00
2022-12-11T15:29:37.444Z,100.00
2022-12-11T15:32:08.527Z,100.00
2022-12-11T15:34:43.423Z,100.00
2022-12-11T15:37:22.788Z,100.00
2022-12-11T15:39:51.045Z,100.00
2022-12-11T15:42:24.422Z,100.00
2022-12-11T15:44:53.609Z,100.00
2022-12-11T15:47:22.916Z,100.00
2022-12-11T15:49:54.733Z,100.00
2022-12-11T15:52:23.019Z,100.00
2022-12-11T15:54:51.144Z,100.00
2022-12-11T15:57:20.931Z,100.00
2022-12-11T15:59:50.687Z,100.00
2022-12-11T16:02:19.222Z,100.00
2022-12-11T16:04:48.021Z,100.00
2022-12-11T16:07:18.278Z,100.00
2022-12-11T16:09:47.021Z,100.00
2022-12-11T16:12:16.228Z,100.00
2022-12-11T16:14:46.062Z,100.00
2022-12-11T16:17:15.614Z,100.00
2022-12-11T16:19:44.578Z,100.00
2022-12-11T16:22:13.334Z,100.00
2022-12-11T16:24:41.888Z,100.00
2022-12-11T16:27:10.076Z,100.00
2022-12-11T16:29:40.029Z,100.00
2022-12-11T16:32:08.937Z,100.00
2022-12-11T16:34:37.960Z,100.00
2022-12-11T16:37:08.168Z,100.00
2022-12-11T16:39:37.335Z,100.00
2022-12-11T16:42:06.677Z,100.00
2022-12-11T16:44:37.323Z,100.00
2022-12-11T16:47:09.263Z,100.00
2022-12-11T16:49:37.397Z,100.00
2022-12-11T16:52:05.528Z,100.00
2022-12-11T16:54:34.252Z,100.00
2022-12-11T16:57:02.581Z,100.00
2022-12-11T16:59:36.614Z,100.00
2022-12-11T17:02:05.670Z,100.00
2022-12-11T17:04:33.971Z,100.00
2022-12-11T17:07:02.219Z,100.00
2022-12-11T17:09:30.607Z,100.00
2022-12-11T17:11:59.424Z,100.00
2022-12-11T17:14:28.010Z,100.00
2022-12-11T17:16:56.949Z,100.00
2022-12-11T17:19:25.293Z,100.00
2022-12-11T17:21:54.469Z,100.00
2022-12-11T17:24:23.172Z,100.00
2022-12-11T17:26:51.627Z,100.00
2022-12-11T17:29:20.384Z,100.00
2022-12-11T17:31:49.251Z,100.00
2022-12-11T17:34:17.687Z,100.00
2022-12-11T17:36:46.814Z,100.00
2022-12-11T17:39:15.017Z,100.00
2022-12-11T17:41:44.848Z,100.00
2022-12-11T17:44:13.031Z,100.00
2022-12-11T17:46:41.303Z,100.00
2022-12-11T17:49:10.039Z,100.00
2022-12-11T17:51:38.804Z,100.00
2022-12-11T17:54:06.943Z,100.00
2022-12-11T17:56:36.511Z,100.00
2022-12-11T17:59:04.907Z,100.00
2022-12-11T18:01:33.082Z,100.00
2022-12-11T18:04:04.378Z,100.00
2022-12-11T18:06:33.595Z,100.00
2022-12-11T18:09:02.408Z,100.00
2022-12-11T18:11:31.097Z,100.00
2022-12-11T18:14:00.371Z,100.00
2022-12-11T18:16:30.487Z,100.00
2022-12-11T18:18:59.331Z,100.00
2022-12-11T18:21:28.887Z,100.00
2022-12-11T18:23:57.136Z,100.00
2022-12-11T18:26:25.375Z,100.00
2022-12-11T18:28:54.235Z,100.00
2022-12-11T18:31:23.035Z,100.00
2022-12-11T18:33:52.340Z,100.00
2022-12-11T18:36:21.240Z,100.00
2022-12-11T18:38:49.444Z,100.00
2022-12-11T18:41:18.987Z,100.00
2022-12-11T18:43:47.515Z,100.00
2022-12-11T18:46:16.704Z,100.00
2022-12-11T18:48:45.527Z,100.00
2022-12-11T18:51:15.437Z,100.00
2022-12-11T18:53:44.191Z,100.00
2022-12-11T18:56:14.202Z,100.00
2022-12-11T18:58:42.814Z,100.00
2022-12-11T19:01:14.260Z,100.00
2022-12-11T19:03:42.879Z,100.00
2022-12-11T19:06:19.808Z,100.00
2022-12-11T19:08:48.636Z,100.00
2022-12-11T19:11:18.594Z,100.00
2022-12-11T19:13:47.307Z,100.00
2022-12-11T19:16:20.335Z,100.00
2022-12-11T19:18:49.628Z,100.00
2022-12-11T19:21:18.971Z,100.00
2022-12-11T19:23:54.276Z,100.00
2022-12-11T19:26:24.635Z,100.00
2022-12-11T19:28:53.760Z,100.00
2022-12-11T19:31:23.946Z,100.00
2022-12-11T19:33:52.998Z,100.00
2022-12-11T19:36:26.337Z,100.00
2022-12-11T19:39:00.970Z,100.00
2022-12-11T19:41:33.032Z,100.00
2022-12-11T19:44:03.389Z,100.00
2022-12-11T19:46:33.141Z,100.00
2022-12-11T19:49:03.495Z,100.00
2022-12-11T19:51:35.049Z,100.00
2022-12-11T19:54:04.777Z,100.00
2022-12-11T19:56:34.472Z,100.00
2022-12-11T19:59:05.740Z,100.00
2022-12-11T20:01:36.677Z,100.00
2022-12-11T20:04:12.594Z,100.00
2022-12-11T20:06:43.226Z,100.00
2022-12-11T20:09:12.774Z,100.00
2022-12-11T20:11:43.059Z,100.00
2022-12-11T20:14:21.145Z,100.00
2022-12-11T20:19:40.614Z,100.00
2022-12-11T20:22:09.791Z,100.00
2022-12-11T20:24:39.489Z,100.00
2022-12-11T20:27:10.534Z,100.00
2022-12-11T20:29:39.416Z,100.00
2022-12-11T20:32:08.531Z,100.00
2022-12-11T20:34:38.134Z,100.00
2022-12-11T20:37:08.449Z,100.00
2022-12-11T20:39:37.368Z,100.00
2022-12-11T20:42:06.202Z,100.00
2022-12-11T20:44:35.440Z,100.00
2022-12-11T20:47:07.523Z,100.00
2022-12-11T20:49:39.425Z,100.00
2022-12-11T20:52:08.608Z,100.00
2022-12-11T20:54:37.425Z,100.00
2022-12-11T20:57:06.079Z,100.00
2022-12-11T20:59:34.568Z,100.00
2022-12-11T21:02:03.841Z,100.00
2022-12-11T21:04:32.329Z,100.00
2022-12-11T21:07:01.356Z,100.00
2022-12-11T21:09:30.745Z,100.00
2022-12-11T21:12:07.153Z,100.00
2022-12-11T21:14:35.584Z,100.00
2022-12-11T21:17:03.825Z,100.00
2022-12-11T21:19:32.855Z,100.00
2022-12-11T21:22:01.160Z,100.00
2022-12-11T21:24:30.068Z,100.00
2022-12-11T21:26:59.324Z,100.00
2022-12-11T21:29:29.618Z,100.00
2022-12-11T21:31:58.178Z,100.00
2022-12-11T21:34:27.031Z,100.00
2022-12-11T21:36:57.371Z,100.00
2022-12-11T21:39:26.971Z,100.00
2022-12-11T21:41:56.123Z,100.00
2022-12-11T21:47:13.168Z,100.00
2022-12-11T21:49:42.295Z,100.00
2022-12-11T21:52:11.367Z,100.00
2022-12-11T21:54:39.887Z,100.00
2022-12-11T21:57:08.026Z,100.00
2022-12-11T21:59:36.138Z,100.00
2022-12-11T22:02:04.875Z,100.00
2022-12-11T22:04:33.478Z,100.00
2022-12-11T22:07:02.003Z,100.00
2022-12-11T22:09:30.928Z,100.00
2022-12-11T22:11:59.443Z,100.00
2022-12-11T22:14:28.002Z,100.00
2022-12-11T22:16:56.834Z,100.00
2022-12-11T22:19:29.156Z,100.00
2022-12-11T22:22:00.960Z,100.00
2022-12-11T22:24:29.192Z,100.00
2022-12-11T22:26:57.515Z,100.00
2022-12-11T22:29:25.737Z,100.00
2022-12-11T22:31:55.141Z,100.00
2022-12-11T22:34:23.759Z,100.00
2022-12-11T22:36:52.779Z,100.00
2022-12-11T22:39:21.772Z,100.00
2022-12-11T22:41:50.330Z,100.00
2022-12-11T22:44:20.988Z,100.00
2022-12-11T22:46:50.392Z,100.00
2022-12-11T22:49:20.148Z,100.00
2022-12-11T22:51:49.390Z,100.00
2022-12-11T22:54:17.862Z,100.00
2022-12-11T22:56:47.130Z,100.00
2022-12-11T22:59:16.717Z,100.00
2022-12-11T23:01:45.196Z,100.00
2022-12-11T23:04:13.742Z,100.00
2022-12-11T23:06:41.949Z,100.00
2022-12-11T23:09:10.547Z,100.00
2022-12-11T23:11:39.464Z,100.00
2022-12-11T23:14:09.515Z,100.00
2022-12-11T23:16:38.505Z,100.00
2022-12-11T23:19:07.297Z,100.00
2022-12-11T23:21:35.452Z,100.00
2022-12-11T23:24:04.236Z,100.00
2022-12-11T23:26:33.152Z,100.00
2022-12-11T23:29:02.250Z,100.00
2022-12-11T23:31:30.785Z,100.00
2022-12-11T23:33:59.056Z,100.00
2022-12-11T23:36:27.685Z,100.00
2022-12-11T23:38:56.030Z,100.00
2022-12-11T23:41:25.339Z,100.00
2022-12-11T23:43:53.626Z,100.00
2022-12-11T23:46:23.733Z,100.00
2022-12-11T23:48:52.867Z,100.00
2022-12-11T23:51:21.902Z,100.00
2022-12-11T23:53:51.135Z,100.00
2022-12-11T23:56:21.288Z,100.00
2022-12-11T23:58:49.634Z,100.00
